sensor_id;sensor_type;location;lat;lon;timestamp;pressure;altitude;pressure_sealevel;temperature;humidity
44103;BME280;29769;42.178;24.742;2024-02-28T00:01:51;100130.94;;;7.00;100.00
44103;BME280;29769;42.178;24.742;2024-02-28T00:04:39;100125.72;;;6.94;100.00
44103;BME280;29769;42.178;24.742;2024-02-28T00:07:24;100143.13;;;6.95;100.00
44103;BME280;29769;42.178;24.742;2024-02-28T00:10:09;100137.03;;;6.90;100.00
44103;BME280;29769;42.178;24.742;2024-02-28T00:12:54;100141.34;;;6.88;100.00
44103;BME280;29769;42.178;24.742;2024-02-28T00:15:39;100149.16;;;6.84;100.00
44103;BME280;29769;42.178;24.742;2024-02-28T00:18:24;100147.44;;;6.84;100.00
44103;BME280;29769;42.178;24.742;2024-02-28T00:21:09;100153.50;;;6.82;100.00
44103;BME280;29769;42.178;24.742;2024-02-28T00:23:54;100159.63;;;6.84;100.00
44103;BME280;29769;42.178;24.742;2024-02-28T00:26:43;100136.84;;;6.69;100.00
44103;BME280;29769;42.178;24.742;2024-02-28T00:29:28;100156.09;;;6.79;100.00
44103;BME280;29769;42.178;24.742;2024-02-28T00:32:13;100160.44;;;6.75;100.00
44103;BME280;29769;42.178;24.742;2024-02-28T00:34:58;100163.88;;;6.69;100.00
44103;BME280;29769;42.178;24.742;2024-02-28T00:37:42;100158.66;;;6.71;100.00
44103;BME280;29769;42.178;24.742;2024-02-28T00:40:27;100163.00;;;6.67;100.00
44103;BME280;29769;42.178;24.742;2024-02-28T00:43:13;100163.81;;;6.62;100.00
44103;BME280;29769;42.178;24.742;2024-02-28T00:45:58;100164.63;;;6.56;100.00
44103;BME280;29769;42.178;24.742;2024-02-28T00:48:43;100164.59;;;6.52;100.00
44103;BME280;29769;42.178;24.742;2024-02-28T00:51:28;100167.19;;;6.49;100.00
44103;BME280;29769;42.178;24.742;2024-02-28T00:54:13;100172.41;;;6.47;100.00
44103;BME280;29769;42.178;24.742;2024-02-28T00:56:58;100169.75;;;6.46;100.00
44103;BME280;29769;42.178;24.742;2024-02-28T00:59:44;100165.41;;;6.46;100.00
44103;BME280;29769;42.178;24.742;2024-02-28T01:02:29;100176.75;;;6.47;100.00
44103;BME280;29769;42.178;24.742;2024-02-28T01:05:14;100163.69;;;6.47;100.00
44103;BME280;29769;42.178;24.742;2024-02-28T01:07:59;100166.31;;;6.48;100.00
44103;BME280;29769;42.178;24.742;2024-02-28T01:10:44;100147.91;;;6.35;100.00
44103;BME280;29769;42.178;24.742;2024-02-28T01:13:30;100172.31;;;6.38;100.00
44103;BME280;29769;42.178;24.742;2024-02-28T01:16:14;100154.75;;;6.23;100.00
44103;BME280;29769;42.178;24.742;2024-02-28T01:19:00;100154.66;;;6.14;100.00
44103;BME280;29769;42.178;24.742;2024-02-28T01:21:44;100168.63;;;6.18;100.00
44103;BME280;29769;42.178;24.742;2024-02-28T01:24:29;100170.34;;;6.14;100.00
44103;BME280;29769;42.178;24.742;2024-02-28T01:27:15;100162.44;;;6.07;100.00
44103;BME280;29769;42.178;24.742;2024-02-28T01:29:59;100160.63;;;5.98;100.00
44103;BME280;29769;42.178;24.742;2024-02-28T01:32:44;100161.38;;;5.91;100.00
44103;BME280;29769;42.178;24.742;2024-02-28T01:35:30;100153.31;;;5.73;100.00
44103;BME280;29769;42.178;24.742;2024-02-28T01:38:15;100167.25;;;5.73;100.00
44103;BME280;29769;42.178;24.742;2024-02-28T01:41:00;100174.16;;;5.70;100.00
44103;BME280;29769;42.178;24.742;2024-02-28T01:43:45;100178.47;;;5.68;100.00
44103;BME280;29769;42.178;24.742;2024-02-28T01:46:31;100176.78;;;5.70;100.00
44103;BME280;29769;42.178;24.742;2024-02-28T01:49:16;100184.66;;;5.71;100.00
44103;BME280;29769;42.178;24.742;2024-02-28T01:52:02;100185.53;;;5.75;100.00
44103;BME280;29769;42.178;24.742;2024-02-28T01:54:48;100163.69;;;5.65;100.00
44103;BME280;29769;42.178;24.742;2024-02-28T01:57:33;100181.22;;;5.75;100.00
44103;BME280;29769;42.178;24.742;2024-02-28T02:00:21;100188.22;;;5.79;100.00
44103;BME280;29769;42.178;24.742;2024-02-28T02:03:07;100192.56;;;5.82;100.00
44103;BME280;29769;42.178;24.742;2024-02-28T02:05:52;100191.66;;;5.78;100.00
44103;BME280;29769;42.178;24.742;2024-02-28T02:08:37;100171.50;;;5.65;100.00
44103;BME280;29769;42.178;24.742;2024-02-28T02:11:23;100188.19;;;5.78;100.00
44103;BME280;29769;42.178;24.742;2024-02-28T02:14:08;100196.88;;;5.77;100.00
44103;BME280;29769;42.178;24.742;2024-02-28T02:16:53;100204.69;;;5.75;100.00
44103;BME280;29769;42.178;24.742;2024-02-28T02:19:38;100201.19;;;5.72;100.00
44103;BME280;29769;42.178;24.742;2024-02-28T02:22:27;100203.75;;;5.67;100.00
44103;BME280;29769;42.178;24.742;2024-02-28T02:25:12;100210.63;;;5.62;100.00
44103;BME280;29769;42.178;24.742;2024-02-28T02:27:57;100213.16;;;5.56;100.00
44103;BME280;29769;42.178;24.742;2024-02-28T02:30:42;100215.59;;;5.46;100.00
44103;BME280;29769;42.178;24.742;2024-02-28T02:33:27;100221.66;;;5.43;100.00
44103;BME280;29769;42.178;24.742;2024-02-28T02:36:12;100229.53;;;5.45;100.00
44103;BME280;29769;42.178;24.742;2024-02-28T02:38:57;100213.81;;;5.42;100.00
44103;BME280;29769;42.178;24.742;2024-02-28T02:41:42;100226.16;;;5.53;100.00
44103;BME280;29769;42.178;24.742;2024-02-28T02:44:27;100216.47;;;5.45;100.00
44103;BME280;29769;42.178;24.742;2024-02-28T02:47:12;100237.41;;;5.51;100.00
44103;BME280;29769;42.178;24.742;2024-02-28T02:49:57;100243.59;;;5.56;100.00
44103;BME280;29769;42.178;24.742;2024-02-28T02:52:42;100238.44;;;5.63;100.00
44103;BME280;29769;42.178;24.742;2024-02-28T02:55:27;100237.66;;;5.67;100.00
44103;BME280;29769;42.178;24.742;2024-02-28T02:58:12;100237.59;;;5.64;100.00
44103;BME280;29769;42.178;24.742;2024-02-28T03:00:57;100242.88;;;5.67;100.00
44103;BME280;29769;42.178;24.742;2024-02-28T03:03:42;100235.47;;;5.36;100.00
44103;BME280;29769;42.178;24.742;2024-02-28T03:06:27;100246.63;;;5.24;100.00
44103;BME280;29769;42.178;24.742;2024-02-28T03:09:12;100247.47;;;5.22;100.00
44103;BME280;29769;42.178;24.742;2024-02-28T03:11:57;100229.81;;;5.04;100.00
44103;BME280;29769;42.178;24.742;2024-02-28T03:14:42;100237.78;;;5.13;100.00
44103;BME280;29769;42.178;24.742;2024-02-28T03:17:27;100253.91;;;4.91;100.00
44103;BME280;29769;42.178;24.742;2024-02-28T03:20:12;100254.63;;;4.82;100.00
44103;BME280;29769;42.178;24.742;2024-02-28T03:23:00;100251.28;;;4.91;100.00
44103;BME280;29769;42.178;24.742;2024-02-28T03:25:45;100235.63;;;4.88;100.00
44103;BME280;29769;42.178;24.742;2024-02-28T03:28:30;100239.16;;;4.91;100.00
44103;BME280;29769;42.178;24.742;2024-02-28T03:31:15;100237.31;;;4.84;100.00
44103;BME280;29769;42.178;24.742;2024-02-28T03:34:00;100236.53;;;4.91;100.00
44103;BME280;29769;42.178;24.742;2024-02-28T03:36:45;100228.81;;;4.98;100.00
44103;BME280;29769;42.178;24.742;2024-02-28T03:39:31;100242.25;;;5.23;100.00
44103;BME280;29769;42.178;24.742;2024-02-28T03:42:15;100244.91;;;5.26;100.00
44103;BME280;29769;42.178;24.742;2024-02-28T03:45:00;100247.63;;;5.34;100.00
44103;BME280;29769;42.178;24.742;2024-02-28T03:47:45;100243.28;;;5.36;100.00
44103;BME280;29769;42.178;24.742;2024-02-28T03:50:30;100246.81;;;5.38;100.00
44103;BME280;29769;42.178;24.742;2024-02-28T03:53:15;100242.47;;;5.38;100.00
44103;BME280;29769;42.178;24.742;2024-02-28T03:56:00;100240.75;;;5.39;100.00
44103;BME280;29769;42.178;24.742;2024-02-28T03:58:45;100235.50;;;5.37;100.00
44103;BME280;29769;42.178;24.742;2024-02-28T04:01:30;100248.63;;;5.45;100.00
44103;BME280;29769;42.178;24.742;2024-02-28T04:04:15;100254.75;;;5.46;100.00
44103;BME280;29769;42.178;24.742;2024-02-28T04:07:00;100257.31;;;5.43;100.00
44103;BME280;29769;42.178;24.742;2024-02-28T04:09:45;100262.22;;;5.23;100.00
44103;BME280;29769;42.178;24.742;2024-02-28T04:12:29;100261.66;;;4.85;100.00
44103;BME280;29769;42.178;24.742;2024-02-28T04:15:14;100269.84;;;4.57;100.00
44103;BME280;29769;42.178;24.742;2024-02-28T04:17:59;100266.94;;;4.40;100.00
44103;BME280;29769;42.178;24.742;2024-02-28T04:20:44;100276.69;;;4.07;100.00
44103;BME280;29769;42.178;24.742;2024-02-28T04:23:29;100267.19;;;3.67;100.00
44103;BME280;29769;42.178;24.742;2024-02-28T04:26:14;100270.88;;;3.78;100.00
44103;BME280;29769;42.178;24.742;2024-02-28T04:29:01;100267.53;;;3.83;100.00
44103;BME280;29769;42.178;24.742;2024-02-28T04:31:48;100265.16;;;3.94;100.00
44103;BME280;29769;42.178;24.742;2024-02-28T04:34:33;100272.19;;;3.98;100.00
44103;BME280;29769;42.178;24.742;2024-02-28T04:37:18;100254.75;;;3.94;100.00
44103;BME280;29769;42.178;24.742;2024-02-28T04:40:03;100267.94;;;4.04;100.00
44103;BME280;29769;42.178;24.742;2024-02-28T04:42:49;100256.75;;;4.07;100.00
44103;BME280;29769;42.178;24.742;2024-02-28T04:45:34;100270.03;;;4.21;100.00
44103;BME280;29769;42.178;24.742;2024-02-28T04:48:19;100276.88;;;4.16;100.00
44103;BME280;29769;42.178;24.742;2024-02-28T04:51:04;100289.72;;;3.66;100.00
44103;BME280;29769;42.178;24.742;2024-02-28T04:53:49;100280.22;;;3.29;100.00
44103;BME280;29769;42.178;24.742;2024-02-28T04:56:39;100289.56;;;3.21;100.00
44103;BME280;29769;42.178;24.742;2024-02-28T04:59:24;100291.84;;;3.09;100.00
44103;BME280;29769;42.178;24.742;2024-02-28T05:02:09;100287.72;;;3.17;100.00
44103;BME280;29769;42.178;24.742;2024-02-28T05:04:54;100282.97;;;3.35;100.00
44103;BME280;29769;42.178;24.742;2024-02-28T05:07:39;100280.47;;;3.41;100.00
44103;BME280;29769;42.178;24.742;2024-02-28T05:10:24;100274.78;;;3.57;100.00
44103;BME280;29769;42.178;24.742;2024-02-28T05:13:09;100277.78;;;3.76;100.00
44103;BME280;29769;42.178;24.742;2024-02-28T05:15:54;100278.06;;;3.89;100.00
44103;BME280;29769;42.178;24.742;2024-02-28T05:18:39;100279.28;;;4.07;100.00
44103;BME280;29769;42.178;24.742;2024-02-28T05:21:24;100285.75;;;4.25;100.00
44103;BME280;29769;42.178;24.742;2024-02-28T05:24:09;100282.59;;;4.43;100.00
44103;BME280;29769;42.178;24.742;2024-02-28T05:26:54;100289.75;;;4.55;100.00
44103;BME280;29769;42.178;24.742;2024-02-28T05:29:39;100298.69;;;4.69;100.00
44103;BME280;29769;42.178;24.742;2024-02-28T05:32:26;100298.94;;;4.82;100.00
44103;BME280;29769;42.178;24.742;2024-02-28T05:35:11;100308.56;;;4.86;100.00
44103;BME280;29769;42.178;24.742;2024-02-28T05:37:56;100309.56;;;4.93;100.00
44103;BME280;29769;42.178;24.742;2024-02-28T05:40:41;100299.28;;;5.02;100.00
44103;BME280;29769;42.178;24.742;2024-02-28T05:43:26;100319.41;;;5.11;100.00
44103;BME280;29769;42.178;24.742;2024-02-28T05:46:12;100320.44;;;5.20;100.00
44103;BME280;29769;42.178;24.742;2024-02-28T05:48:57;100318.00;;;5.29;100.00
44103;BME280;29769;42.178;24.742;2024-02-28T05:51:42;100316.66;;;5.56;100.00
44103;BME280;29769;42.178;24.742;2024-02-28T05:54:27;100319.50;;;5.71;100.00
44103;BME280;29769;42.178;24.742;2024-02-28T05:57:12;100321.53;;;5.92;100.00
44103;BME280;29769;42.178;24.742;2024-02-28T05:59:57;100322.56;;;6.03;100.00
44103;BME280;29769;42.178;24.742;2024-02-28T06:02:42;100335.75;;;6.12;100.00
44103;BME280;29769;42.178;24.742;2024-02-28T06:05:27;100336.06;;;6.38;100.00
44103;BME280;29769;42.178;24.742;2024-02-28T06:08:12;100331.88;;;6.55;100.00
44103;BME280;29769;42.178;24.742;2024-02-28T06:10:57;100333.88;;;6.77;100.00
44103;BME280;29769;42.178;24.742;2024-02-28T06:13:42;100332.41;;;7.05;100.00
44103;BME280;29769;42.178;24.742;2024-02-28T06:16:27;100331.63;;;7.15;100.00
44103;BME280;29769;42.178;24.742;2024-02-28T06:19:12;100316.94;;;7.32;100.00
44103;BME280;29769;42.178;24.742;2024-02-28T06:21:57;100341.53;;;7.55;100.00
44103;BME280;29769;42.178;24.742;2024-02-28T06:24:42;100329.31;;;7.54;100.00
44103;BME280;29769;42.178;24.742;2024-02-28T06:27:27;100340.81;;;7.76;100.00
44103;BME280;29769;42.178;24.742;2024-02-28T06:30:12;100351.38;;;7.93;100.00
44103;BME280;29769;42.178;24.742;2024-02-28T06:32:58;100354.94;;;8.02;100.00
44103;BME280;29769;42.178;24.742;2024-02-28T06:35:44;100351.53;;;8.19;100.00
44103;BME280;29769;42.178;24.742;2024-02-28T06:38:29;100353.41;;;8.38;100.00
44103;BME280;29769;42.178;24.742;2024-02-28T06:41:13;100369.19;;;8.56;100.00
44103;BME280;29769;42.178;24.742;2024-02-28T06:43:58;100362.28;;;8.76;100.00
44103;BME280;29769;42.178;24.742;2024-02-28T06:46:44;100364.94;;;9.07;100.00
44103;BME280;29769;42.178;24.742;2024-02-28T06:49:28;100368.47;;;9.37;100.00
44103;BME280;29769;42.178;24.742;2024-02-28T06:52:13;100368.44;;;9.78;100.00
44103;BME280;29769;42.178;24.742;2024-02-28T06:54:58;100370.16;;;10.27;100.00
44103;BME280;29769;42.178;24.742;2024-02-28T06:57:45;100370.81;;;10.71;100.00
44103;BME280;29769;42.178;24.742;2024-02-28T07:00:30;100365.25;;;11.18;100.00
44103;BME280;29769;42.178;24.742;2024-02-28T07:03:15;100368.50;;;11.52;100.00
44103;BME280;29769;42.178;24.742;2024-02-28T07:06:00;100365.72;;;11.69;100.00
44103;BME280;29769;42.178;24.742;2024-02-28T07:08:45;100368.50;;;11.52;100.00
44103;BME280;29769;42.178;24.742;2024-02-28T07:11:29;100347.06;;;10.83;100.00
44103;BME280;29769;42.178;24.742;2024-02-28T07:14:14;100380.19;;;11.13;100.00
44103;BME280;29769;42.178;24.742;2024-02-28T07:16:59;100375.63;;;11.41;100.00
44103;BME280;29769;42.178;24.742;2024-02-28T07:19:44;100378.13;;;11.56;100.00
44103;BME280;29769;42.178;24.742;2024-02-28T07:22:29;100376.81;;;12.04;100.00
44103;BME280;29769;42.178;24.742;2024-02-28T07:25:13;100373.94;;;12.30;100.00
44103;BME280;29769;42.178;24.742;2024-02-28T07:27:58;100377.06;;;12.61;100.00
44103;BME280;29769;42.178;24.742;2024-02-28T07:30:46;100380.09;;;12.96;100.00
44103;BME280;29769;42.178;24.742;2024-02-28T07:33:33;100396.13;;;12.82;100.00
44103;BME280;29769;42.178;24.742;2024-02-28T07:36:17;100390.81;;;13.99;100.00
44103;BME280;29769;42.178;24.742;2024-02-28T07:39:03;100387.47;;;15.18;100.00
44103;BME280;29769;42.178;24.742;2024-02-28T07:41:47;100378.25;;;16.07;100.00
44103;BME280;29769;42.178;24.742;2024-02-28T07:44:33;100369.78;;;16.86;100.00
44103;BME280;29769;42.178;24.742;2024-02-28T07:47:17;100369.91;;;17.67;95.14
44103;BME280;29769;42.178;24.742;2024-02-28T07:50:03;100376.56;;;18.54;74.40
44103;BME280;29769;42.178;24.742;2024-02-28T07:52:47;100371.44;;;19.18;71.06
44103;BME280;29769;42.178;24.742;2024-02-28T07:55:32;100363.09;;;19.91;65.64
44103;BME280;29769;42.178;24.742;2024-02-28T07:58:17;100353.09;;;20.36;62.49
44103;BME280;29769;42.178;24.742;2024-02-28T08:01:02;100350.50;;;20.74;59.82
44103;BME280;29769;42.178;24.742;2024-02-28T08:03:48;100340.56;;;21.68;54.69
44103;BME280;29769;42.178;24.742;2024-02-28T08:06:33;100343.56;;;22.31;50.63
44103;BME280;29769;42.178;24.742;2024-02-28T08:09:18;100346.25;;;22.63;50.38
44103;BME280;29769;42.178;24.742;2024-02-28T08:12:04;100346.16;;;23.29;46.65
44103;BME280;29769;42.178;24.742;2024-02-28T08:14:48;100340.94;;;23.58;44.72
44103;BME280;29769;42.178;24.742;2024-02-28T08:17:33;100336.22;;;23.77;43.44
44103;BME280;29769;42.178;24.742;2024-02-28T08:20:18;100339.22;;;23.41;44.03
44103;BME280;29769;42.178;24.742;2024-02-28T08:23:04;100328.31;;;24.76;41.62
44103;BME280;29769;42.178;24.742;2024-02-28T08:25:49;100326.13;;;25.64;38.72
44103;BME280;29769;42.178;24.742;2024-02-28T08:28:34;100321.00;;;25.87;37.05
44103;BME280;29769;42.178;24.742;2024-02-28T08:31:19;100321.16;;;26.10;36.62
44103;BME280;29769;42.178;24.742;2024-02-28T08:34:05;100312.69;;;26.29;35.35
44103;BME280;29769;42.178;24.742;2024-02-28T08:36:49;100319.31;;;25.59;36.72
44103;BME280;29769;42.178;24.742;2024-02-28T08:39:34;100317.69;;;26.08;36.00
44103;BME280;29769;42.178;24.742;2024-02-28T08:42:19;100319.38;;;24.90;37.80
44103;BME280;29769;42.178;24.742;2024-02-28T08:45:05;100326.19;;;24.81;38.00
44103;BME280;29769;42.178;24.742;2024-02-28T08:47:50;100325.91;;;24.71;39.14
44103;BME280;29769;42.178;24.742;2024-02-28T08:50:35;100319.75;;;24.27;39.73
44103;BME280;29769;42.178;24.742;2024-02-28T08:53:21;100321.03;;;24.92;38.75
44103;BME280;29769;42.178;24.742;2024-02-28T08:56:06;100313.63;;;25.76;36.58
44103;BME280;29769;42.178;24.742;2024-02-28T08:58:51;100325.75;;;24.74;38.27
44103;BME280;29769;42.178;24.742;2024-02-28T09:01:36;100329.09;;;26.12;36.08
44103;BME280;29769;42.178;24.742;2024-02-28T09:04:21;100314.59;;;27.14;34.32
44103;BME280;29769;42.178;24.742;2024-02-28T09:07:06;100317.50;;;27.71;33.32
44103;BME280;29769;42.178;24.742;2024-02-28T09:09:51;100317.50;;;26.75;33.45
44103;BME280;29769;42.178;24.742;2024-02-28T09:12:36;100322.66;;;26.15;35.23
44103;BME280;29769;42.178;24.742;2024-02-28T09:15:21;100319.78;;;26.43;34.94
44103;BME280;29769;42.178;24.742;2024-02-28T09:18:07;100312.69;;;26.29;34.99
44103;BME280;29769;42.178;24.742;2024-02-28T09:20:53;100312.66;;;25.64;36.21
44103;BME280;29769;42.178;24.742;2024-02-28T09:23:38;100308.25;;;26.28;35.31
44103;BME280;29769;42.178;24.742;2024-02-28T09:26:23;100299.75;;;27.56;33.62
44103;BME280;29769;42.178;24.742;2024-02-28T09:29:08;100297.63;;;28.18;32.01
44103;BME280;29769;42.178;24.742;2024-02-28T09:31:53;100306.91;;;27.92;32.47
44103;BME280;29769;42.178;24.742;2024-02-28T09:34:38;100298.66;;;27.94;32.15
44103;BME280;29769;42.178;24.742;2024-02-28T09:37:23;100289.00;;;29.25;31.16
44103;BME280;29769;42.178;24.742;2024-02-28T09:40:10;100295.50;;;30.38;28.97
44103;BME280;29769;42.178;24.742;2024-02-28T09:43:01;100293.38;;;30.42;28.50
44103;BME280;29769;42.178;24.742;2024-02-28T09:45:47;100283.72;;;30.08;29.51
44103;BME280;29769;42.178;24.742;2024-02-28T09:48:32;100277.03;;;30.93;28.13
44103;BME280;29769;42.178;24.742;2024-02-28T09:51:18;100278.47;;;30.57;28.27
44103;BME280;29769;42.178;24.742;2024-02-28T09:54:04;100269.50;;;31.25;27.40
44103;BME280;29769;42.178;24.742;2024-02-28T09:56:49;100275.53;;;32.25;26.27
44103;BME280;29769;42.178;24.742;2024-02-28T09:59:35;100253.63;;;32.91;25.21
44103;BME280;29769;42.178;24.742;2024-02-28T10:02:21;100258.94;;;32.55;26.01
44103;BME280;29769;42.178;24.742;2024-02-28T10:05:08;100254.38;;;31.81;26.78
44103;BME280;29769;42.178;24.742;2024-02-28T10:07:53;100248.16;;;33.36;25.54
44103;BME280;29769;42.178;24.742;2024-02-28T10:10:38;100245.06;;;34.10;24.20
44103;BME280;29769;42.178;24.742;2024-02-28T10:13:23;100250.50;;;33.84;24.47
44103;BME280;29769;42.178;24.742;2024-02-28T10:16:08;100243.44;;;33.38;25.17
44103;BME280;29769;42.178;24.742;2024-02-28T10:18:53;100247.44;;;33.87;24.35
44103;BME280;29769;42.178;24.742;2024-02-28T10:21:38;100230.81;;;34.50;23.84
44103;BME280;29769;42.178;24.742;2024-02-28T10:24:26;100231.38;;;33.13;25.15
44103;BME280;29769;42.178;24.742;2024-02-28T10:27:15;100227.47;;;31.39;26.61
44103;BME280;29769;42.178;24.742;2024-02-28T10:30:01;100223.31;;;31.35;26.57
44103;BME280;29769;42.178;24.742;2024-02-28T10:32:49;100218.22;;;32.54;25.74
44103;BME280;29769;42.178;24.742;2024-02-28T10:35:35;100215.81;;;32.04;26.50
44103;BME280;29769;42.178;24.742;2024-02-28T10:38:21;100219.25;;;30.91;27.58
44103;BME280;29769;42.178;24.742;2024-02-28T10:41:06;100214.94;;;32.13;26.58
44103;BME280;29769;42.178;24.742;2024-02-28T10:43:51;100209.63;;;33.92;24.66
44103;BME280;29769;42.178;24.742;2024-02-28T10:46:37;100195.50;;;35.14;23.30
44103;BME280;29769;42.178;24.742;2024-02-28T10:49:22;100197.81;;;35.67;22.52
44103;BME280;29769;42.178;24.742;2024-02-28T10:52:08;100188.25;;;33.26;24.43
44103;BME280;29769;42.178;24.742;2024-02-28T10:54:55;100183.22;;;31.75;26.42
44103;BME280;29769;42.178;24.742;2024-02-28T10:57:41;100178.34;;;32.62;25.21
44103;BME280;29769;42.178;24.742;2024-02-28T11:00:27;100167.81;;;32.95;25.11
44103;BME280;29769;42.178;24.742;2024-02-28T11:03:17;100175.47;;;34.14;24.33
44103;BME280;29769;42.178;24.742;2024-02-28T11:06:02;100163.44;;;34.24;23.61
44103;BME280;29769;42.178;24.742;2024-02-28T11:08:48;100167.22;;;33.62;24.30
44103;BME280;29769;42.178;24.742;2024-02-28T11:11:36;100165.81;;;32.05;26.26
44103;BME280;29769;42.178;24.742;2024-02-28T11:14:22;100155.44;;;31.82;26.33
44103;BME280;29769;42.178;24.742;2024-02-28T11:17:09;100150.50;;;32.69;25.31
44103;BME280;29769;42.178;24.742;2024-02-28T11:19:55;100146.53;;;32.98;25.08
44103;BME280;29769;42.178;24.742;2024-02-28T11:22:40;100149.75;;;33.47;24.34
44103;BME280;29769;42.178;24.742;2024-02-28T11:25:25;100151.56;;;33.64;24.11
44103;BME280;29769;42.178;24.742;2024-02-28T11:28:10;100143.81;;;33.51;23.95
44103;BME280;29769;42.178;24.742;2024-02-28T11:30:55;100136.78;;;32.60;25.33
44103;BME280;29769;42.178;24.742;2024-02-28T11:33:40;100126.19;;;31.56;26.07
44103;BME280;29769;42.178;24.742;2024-02-28T11:36:25;100132.75;;;29.76;28.26
44103;BME280;29769;42.178;24.742;2024-02-28T11:39:10;100126.09;;;28.86;29.62
44103;BME280;29769;42.178;24.742;2024-02-28T11:41:55;100113.94;;;26.66;32.98
44103;BME280;29769;42.178;24.742;2024-02-28T11:44:40;100116.22;;;26.60;33.77
44103;BME280;29769;42.178;24.742;2024-02-28T11:47:25;100117.31;;;27.05;33.22
44103;BME280;29769;42.178;24.742;2024-02-28T11:50:10;100113.19;;;27.69;32.14
44103;BME280;29769;42.178;24.742;2024-02-28T11:52:55;100113.25;;;28.56;31.10
44103;BME280;29769;42.178;24.742;2024-02-28T11:55:40;100105.25;;;28.66;30.63
44103;BME280;29769;42.178;24.742;2024-02-28T11:58:27;100098.81;;;28.78;30.43
44103;BME280;29769;42.178;24.742;2024-02-28T12:01:12;100099.09;;;29.79;29.24
44103;BME280;29769;42.178;24.742;2024-02-28T12:03:57;100095.13;;;30.82;27.80
44103;BME280;29769;42.178;24.742;2024-02-28T12:06:42;100090.50;;;32.33;26.13
44103;BME280;29769;42.178;24.742;2024-02-28T12:09:30;100087.38;;;33.08;24.77
44103;BME280;29769;42.178;24.742;2024-02-28T12:12:16;100090.00;;;32.47;25.25
44103;BME280;29769;42.178;24.742;2024-02-28T12:15:01;100084.41;;;31.38;26.12
44103;BME280;29769;42.178;24.742;2024-02-28T12:17:48;100090.06;;;29.69;28.19
44103;BME280;29769;42.178;24.742;2024-02-28T12:20:33;100081.81;;;28.76;29.43
44103;BME280;29769;42.178;24.742;2024-02-28T12:23:18;100072.56;;;29.10;29.40
44103;BME280;29769;42.178;24.742;2024-02-28T12:26:03;100070.97;;;27.33;31.11
44103;BME280;29769;42.178;24.742;2024-02-28T12:28:49;100067.41;;;27.32;30.95
44103;BME280;29769;42.178;24.742;2024-02-28T12:31:34;100040.81;;;26.69;31.98
44103;BME280;29769;42.178;24.742;2024-02-28T12:34:18;100074.78;;;25.62;33.54
44103;BME280;29769;42.178;24.742;2024-02-28T12:37:04;100075.00;;;25.85;33.78
44103;BME280;29769;42.178;24.742;2024-02-28T12:39:49;100071.59;;;25.57;34.26
44103;BME280;29769;42.178;24.742;2024-02-28T12:42:36;100070.53;;;24.95;35.55
44103;BME280;29769;42.178;24.742;2024-02-28T12:45:21;100062.69;;;23.98;38.63
44103;BME280;29769;42.178;24.742;2024-02-28T12:48:06;100061.50;;;24.30;38.64
44103;BME280;29769;42.178;24.742;2024-02-28T12:50:51;100062.41;;;24.43;37.83
44103;BME280;29769;42.178;24.742;2024-02-28T12:53:36;100050.44;;;24.74;37.45
44103;BME280;29769;42.178;24.742;2024-02-28T12:56:21;100052.34;;;24.99;37.28
44103;BME280;29769;42.178;24.742;2024-02-28T12:59:06;100047.53;;;24.77;37.53
44103;BME280;29769;42.178;24.742;2024-02-28T13:01:51;100046.88;;;23.79;39.51
44103;BME280;29769;42.178;24.742;2024-02-28T13:04:36;100052.19;;;23.52;40.87
44103;BME280;29769;42.178;24.742;2024-02-28T13:07:21;100047.53;;;23.26;41.36
44103;BME280;29769;42.178;24.742;2024-02-28T13:10:07;100034.69;;;23.17;42.35
44103;BME280;29769;42.178;24.742;2024-02-28T13:12:53;100041.09;;;22.25;45.16
44103;BME280;29769;42.178;24.742;2024-02-28T13:15:40;100040.28;;;22.38;44.88
44103;BME280;29769;42.178;24.742;2024-02-28T13:18:24;100046.69;;;21.89;46.52
44103;BME280;29769;42.178;24.742;2024-02-28T13:21:10;100048.28;;;21.10;49.64
44103;BME280;29769;42.178;24.742;2024-02-28T13:23:55;100053.91;;;20.71;51.45
44103;BME280;29769;42.178;24.742;2024-02-28T13:26:40;100040.69;;;21.19;50.56
44103;BME280;29769;42.178;24.742;2024-02-28T13:29:26;100032.25;;;21.76;49.08
44103;BME280;29769;42.178;24.742;2024-02-28T13:32:11;100028.59;;;22.85;44.94
44103;BME280;29769;42.178;24.742;2024-02-28T13:34:56;100032.19;;;23.42;42.35
44103;BME280;29769;42.178;24.742;2024-02-28T13:37:41;100028.75;;;23.82;41.19
44103;BME280;29769;42.178;24.742;2024-02-28T13:40:26;100031.50;;;23.95;40.67
44103;BME280;29769;42.178;24.742;2024-02-28T13:43:12;100028.06;;;23.36;41.93
44103;BME280;29769;42.178;24.742;2024-02-28T13:45:57;100016.03;;;22.71;43.51
44103;BME280;29769;42.178;24.742;2024-02-28T13:48:45;100025.00;;;22.25;45.73
44103;BME280;29769;42.178;24.742;2024-02-28T13:51:30;100027.94;;;21.89;47.34
44103;BME280;29769;42.178;24.742;2024-02-28T13:54:15;100016.63;;;22.15;46.94
44103;BME280;29769;42.178;24.742;2024-02-28T13:57:00;100022.91;;;21.18;49.26
44103;BME280;29769;42.178;24.742;2024-02-28T13:59:49;100020.16;;;21.03;50.57
44103;BME280;29769;42.178;24.742;2024-02-28T14:02:35;100012.84;;;20.72;52.11
44103;BME280;29769;42.178;24.742;2024-02-28T14:05:20;100015.69;;;20.52;52.61
44103;BME280;29769;42.178;24.742;2024-02-28T14:08:05;100016.38;;;20.38;54.66
44103;BME280;29769;42.178;24.742;2024-02-28T14:10:54;100021.31;;;20.10;55.29
44103;BME280;29769;42.178;24.742;2024-02-28T14:13:39;100017.94;;;20.06;55.71